createdAt,value
2023-01-11T00:01:21.190Z,1.90
2023-01-11T00:03:49.511Z,2.23
2023-01-11T00:06:17.831Z,2.50
2023-01-11T00:08:46.514Z,1.97
2023-01-11T00:11:17.672Z,2.17
2023-01-11T00:13:46.734Z,2.10
2023-01-11T00:16:15.518Z,2.03
2023-01-11T00:18:43.884Z,2.27
2023-01-11T00:21:12.252Z,2.67
2023-01-11T00:23:40.477Z,4.73
2023-01-11T00:26:11.373Z,5.70
2023-01-11T00:28:41.033Z,5.43
2023-01-11T00:31:10.217Z,5.67
2023-01-11T00:33:38.575Z,4.73
2023-01-11T00:36:07.368Z,2.17
2023-01-11T00:38:55.451Z,2.77
2023-01-11T00:41:41.876Z,3.10
2023-01-11T00:44:30.650Z,2.77
2023-01-11T00:47:17.228Z,2.90
2023-01-11T00:49:45.865Z,3.10
2023-01-11T00:52:14.122Z,4.70
2023-01-11T00:54:43.346Z,3.10
2023-01-11T00:57:11.549Z,5.40
2023-01-11T00:59:41.391Z,3.33
2023-01-11T01:02:11.242Z,4.90
2023-01-11T01:04:40.435Z,3.43
2023-01-11T01:07:09.531Z,3.20
2023-01-11T01:09:37.809Z,3.93
2023-01-11T01:12:07.079Z,4.47
2023-01-11T01:14:34.371Z,2.77
2023-01-11T01:17:07.196Z,3.40
2023-01-11T01:19:39.198Z,2.47
2023-01-11T01:22:25.754Z,3.80
2023-01-11T01:24:54.003Z,5.13
2023-01-11T01:27:22.327Z,4.23
2023-01-11T01:29:54.344Z,4.90
2023-01-11T01:32:30.079Z,3.10
2023-01-11T01:34:58.493Z,3.80
2023-01-11T01:37:26.849Z,3.40
2023-01-11T01:39:55.109Z,2.63
2023-01-11T01:42:24.275Z,3.20
2023-01-11T01:45:05.367Z,3.20
2023-01-11T01:47:48.114Z,2.43
2023-01-11T01:50:21.735Z,11.40
2023-01-11T01:53:00.876Z,9.43
2023-01-11T01:55:34.715Z,19.47
2023-01-11T01:58:05.676Z,30.30
2023-01-11T02:00:34.270Z,31.30
2023-01-11T02:03:05.462Z,16.00
2023-01-11T02:05:33.786Z,10.03
2023-01-11T02:08:06.184Z,13.33
2023-01-11T02:10:34.943Z,21.20
2023-01-11T02:13:06.432Z,33.23
2023-01-11T02:15:34.719Z,21.23
2023-01-11T02:18:04.606Z,16.47
2023-01-11T02:20:56.158Z,18.77
2023-01-11T02:24:05.671Z,14.73
2023-01-11T02:27:08.890Z,10.73
2023-01-11T02:29:50.680Z,10.23
2023-01-11T02:32:27.924Z,8.67
2023-01-11T02:35:05.458Z,6.97
2023-01-11T02:37:41.750Z,7.03
2023-01-11T02:40:18.350Z,6.40
2023-01-11T02:43:10.138Z,5.07
2023-01-11T02:45:47.733Z,4.50
2023-01-11T02:48:23.312Z,3.63
2023-01-11T02:50:59.326Z,3.97
2023-01-11T02:53:33.432Z,4.00
2023-01-11T02:56:07.917Z,3.43
2023-01-11T02:58:39.879Z,3.20
2023-01-11T03:01:10.629Z,3.20
2023-01-11T03:03:38.868Z,2.83
2023-01-11T03:06:13.531Z,3.50
2023-01-11T03:08:55.956Z,3.40
2023-01-11T03:11:48.242Z,5.47
2023-01-11T03:14:25.346Z,4.80
2023-01-11T03:17:05.111Z,6.93
2023-01-11T03:19:40.879Z,5.20
2023-01-11T03:22:15.400Z,6.70
2023-01-11T03:24:49.295Z,5.63
2023-01-11T03:27:25.657Z,5.27
2023-01-11T03:30:03.835Z,4.10
2023-01-11T03:32:41.349Z,3.80
2023-01-11T03:35:18.699Z,3.87
2023-01-11T03:37:52.252Z,4.60
2023-01-11T03:40:24.835Z,4.70
2023-01-11T03:43:13.511Z,10.00
2023-01-11T03:45:47.624Z,7.13
2023-01-11T03:48:21.222Z,3.97
2023-01-11T03:50:52.093Z,4.83
2023-01-11T03:53:23.163Z,5.00
2023-01-11T03:56:13.749Z,6.10
2023-01-11T03:58:42.060Z,5.40
2023-01-11T04:01:10.618Z,5.37
2023-01-11T04:03:55.481Z,4.60
2023-01-11T04:06:24.819Z,5.57
2023-01-11T04:08:53.174Z,4.90
2023-01-11T04:11:21.541Z,4.13
2023-01-11T04:13:49.806Z,4.63
2023-01-11T04:16:18.101Z,3.40
2023-01-11T04:18:46.402Z,4.07
2023-01-11T04:21:16.040Z,3.53
2023-01-11T04:23:44.457Z,5.30
2023-01-11T04:26:12.725Z,4.30
2023-01-11T04:28:40.998Z,4.47
2023-01-11T04:31:09.216Z,3.30
2023-01-11T04:33:37.535Z,2.30
2023-01-11T04:36:06.903Z,2.70
2023-01-11T04:38:36.931Z,2.50
2023-01-11T04:41:23.826Z,2.60
2023-01-11T04:43:54.723Z,2.60
2023-01-11T04:46:23.265Z,2.53
2023-01-11T04:48:52.587Z,3.30
2023-01-11T04:51:20.935Z,3.27
2023-01-11T04:53:50.532Z,3.23
2023-01-11T04:56:19.399Z,3.00
2023-01-11T04:58:48.062Z,3.10
2023-01-11T05:01:18.877Z,3.20
2023-01-11T05:03:47.737Z,2.50
2023-01-11T05:06:16.546Z,3.20
2023-01-11T05:08:47.177Z,3.40
2023-01-11T05:11:18.414Z,3.90
2023-01-11T05:13:46.800Z,3.10
2023-01-11T05:16:17.710Z,3.17
2023-01-11T05:18:57.298Z,2.40
2023-01-11T05:21:27.693Z,6.07
2023-01-11T05:23:56.366Z,14.07
2023-01-11T05:26:27.930Z,8.70
2023-01-11T05:28:57.763Z,6.70
2023-01-11T05:31:26.482Z,6.50
2023-01-11T05:33:57.328Z,6.00
2023-01-11T05:36:27.257Z,7.77
2023-01-11T05:38:57.491Z,6.00
2023-01-11T05:41:28.425Z,4.67
2023-01-11T05:44:15.134Z,4.97
2023-01-11T05:46:45.204Z,5.70
2023-01-11T05:49:15.114Z,9.97
2023-01-11T05:51:43.737Z,5.67
2023-01-11T05:54:14.425Z,4.53
2023-01-11T05:56:44.220Z,6.63
2023-01-11T05:59:12.922Z,5.53
2023-01-11T06:01:41.496Z,4.17
2023-01-11T06:04:09.781Z,4.73
2023-01-11T06:06:38.183Z,3.30
2023-01-11T06:09:06.468Z,4.37
2023-01-11T06:11:34.860Z,6.63
2023-01-11T06:14:04.529Z,9.47
2023-01-11T06:16:32.880Z,10.00
2023-01-11T06:19:01.147Z,4.90
2023-01-11T06:21:29.440Z,6.60
2023-01-11T06:23:57.657Z,10.50
2023-01-11T06:26:25.962Z,9.40
2023-01-11T06:28:54.276Z,5.47
2023-01-11T06:31:24.089Z,5.23
2023-01-11T06:33:52.412Z,4.23
2023-01-11T06:36:20.655Z,3.47
2023-01-11T06:38:48.939Z,3.70
2023-01-11T06:41:17.227Z,3.53
2023-01-11T06:43:46.574Z,3.43
2023-01-11T06:46:16.375Z,5.60
2023-01-11T06:48:46.577Z,5.30
2023-01-11T06:51:15.873Z,4.83
2023-01-11T06:53:46.003Z,3.73
2023-01-11T06:56:16.365Z,3.37
2023-01-11T06:58:46.881Z,5.10
2023-01-11T07:01:15.745Z,8.17
2023-01-11T07:03:45.568Z,11.53
2023-01-11T07:06:13.936Z,8.87
2023-01-11T07:08:42.674Z,6.03
2023-01-11T07:11:11.946Z,4.27
2023-01-11T07:13:40.349Z,6.37
2023-01-11T07:16:08.905Z,6.97
2023-01-11T07:18:37.445Z,6.67
2023-01-11T07:21:08.325Z,4.03
2023-01-11T07:23:36.779Z,4.80
2023-01-11T07:26:05.137Z,3.33
2023-01-11T07:28:33.409Z,3.87
2023-01-11T07:31:01.797Z,4.87
2023-01-11T07:33:30.025Z,3.37
2023-01-11T07:36:00.780Z,2.80
2023-01-11T07:38:30.428Z,7.67
2023-01-11T07:40:58.843Z,4.10
2023-01-11T07:43:27.006Z,3.30
2023-01-11T07:45:55.548Z,4.93
2023-01-11T07:48:27.342Z,4.40
2023-01-11T07:50:56.236Z,4.70
2023-01-11T07:53:26.441Z,6.63
2023-01-11T07:55:57.510Z,7.33
2023-01-11T07:58:25.853Z,8.83
2023-01-11T08:00:54.389Z,8.00
2023-01-11T08:03:22.853Z,8.60
2023-01-11T08:05:52.526Z,2.00
2023-01-11T08:08:21.205Z,2.70
2023-01-11T08:11:10.980Z,1.47
2023-01-11T08:13:58.390Z,1.53
2023-01-11T08:16:27.542Z,1.20
2023-01-11T08:18:55.901Z,1.20
2023-01-11T08:21:48.812Z,1.10
2023-01-11T08:24:17.225Z,1.50
2023-01-11T08:26:45.754Z,1.00
2023-01-11T08:29:15.507Z,0.90
2023-01-11T08:31:45.328Z,1.00
2023-01-11T08:34:13.703Z,1.30
2023-01-11T08:36:42.044Z,0.93
2023-01-11T08:39:10.749Z,1.60
2023-01-11T08:41:39.553Z,1.77
2023-01-11T08:44:09.338Z,1.00
2023-01-11T08:46:39.084Z,1.10
2023-01-11T08:49:12.218Z,0.93
2023-01-11T08:51:40.976Z,1.50
2023-01-11T08:54:12.918Z,1.50
2023-01-11T08:56:41.656Z,1.10
2023-01-11T08:59:11.545Z,2.53
2023-01-11T09:01:41.152Z,1.33
2023-01-11T09:04:23.075Z,1.00
2023-01-11T09:06:52.049Z,4.20
2023-01-11T09:09:20.381Z,2.50
2023-01-11T09:11:58.938Z,2.60
2023-01-11T09:14:28.999Z,2.20
2023-01-11T09:17:02.591Z,1.83
2023-01-11T09:19:33.431Z,1.30
2023-01-11T09:22:30.215Z,1.80
2023-01-11T09:25:00.237Z,1.60
2023-01-11T09:27:28.559Z,1.73
2023-01-11T09:29:56.878Z,1.63
2023-01-11T09:32:26.482Z,1.53
2023-01-11T09:34:57.987Z,1.30
2023-01-11T09:37:26.255Z,1.87
2023-01-11T09:39:54.722Z,1.67
2023-01-11T09:42:35.430Z,2.00
2023-01-11T09:45:14.500Z,1.80
2023-01-11T09:47:52.657Z,1.23
2023-01-11T09:50:26.010Z,0.90
2023-01-11T09:52:59.022Z,2.40
2023-01-11T09:58:55.773Z,1.70
2023-01-11T10:01:31.196Z,1.60
2023-01-11T10:04:39.071Z,1.17
2023-01-11T10:07:43.003Z,1.70
2023-01-11T10:18:25.784Z,1.93
2023-01-11T10:19:42.487Z,2.30
2023-01-11T10:22:18.923Z,3.17
2023-01-11T10:24:51.844Z,4.67
2023-01-11T10:27:23.194Z,4.40
2023-01-11T10:30:12.836Z,3.83
2023-01-11T10:33:10.232Z,1.77
2023-01-11T10:36:27.586Z,2.80
2023-01-11T10:39:15.778Z,2.30
2023-01-11T10:41:55.012Z,1.57
2023-01-11T10:44:31.547Z,1.80
2023-01-11T10:47:00.870Z,2.23
2023-01-11T10:49:45.152Z,31.90
2023-01-11T10:52:29.281Z,11.40
2023-01-11T10:54:58.866Z,8.97
2023-01-11T10:58:01.415Z,9.43
2023-01-11T11:00:39.828Z,1.90
2023-01-11T11:03:30.058Z,2.40
2023-01-11T11:06:04.068Z,2.20
2023-01-11T11:08:40.876Z,2.40
2023-01-11T11:11:13.585Z,1.90
2023-01-11T11:13:52.640Z,1.93
2023-01-11T11:16:36.535Z,1.63
2023-01-11T11:19:05.001Z,1.70
2023-01-11T11:21:57.629Z,1.90
2023-01-11T11:24:33.498Z,1.77
2023-01-11T11:27:09.458Z,1.87
2023-01-11T11:29:43.553Z,1.83
2023-01-11T11:32:22.156Z,1.90
2023-01-11T11:34:51.956Z,1.60
2023-01-11T11:37:26.444Z,1.83
2023-01-11T11:39:56.518Z,2.53
2023-01-11T11:42:25.623Z,1.97
2023-01-11T11:45:20.446Z,1.90
2023-01-11T11:48:11.201Z,4.00
2023-01-11T11:50:45.269Z,2.23
2023-01-11T11:53:27.757Z,1.97
2023-01-11T11:55:57.535Z,1.80
2023-01-11T11:58:27.753Z,1.80
2023-01-11T12:00:56.157Z,2.40
2023-01-11T12:03:30.076Z,2.03
2023-01-11T12:06:01.887Z,2.07
2023-01-11T12:08:32.648Z,2.43
2023-01-11T12:11:05.391Z,2.37
2023-01-11T12:13:35.510Z,2.00
2023-01-11T12:16:05.946Z,2.10
2023-01-11T12:18:41.618Z,2.37
2023-01-11T12:21:21.897Z,2.10
2023-01-11T12:24:34.518Z,1.83
2023-01-11T12:27:13.539Z,2.30
2023-01-11T12:29:55.939Z,1.80
2023-01-11T12:32:43.562Z,2.80
2023-01-11T12:35:26.418Z,2.27
2023-01-11T12:38:19.440Z,2.20
2023-01-11T12:41:00.054Z,2.30
2023-01-11T12:43:47.588Z,2.93
2023-01-11T12:46:25.069Z,2.70
2023-01-11T12:49:14.591Z,2.20
2023-01-11T12:51:57.028Z,2.37
2023-01-11T12:54:52.625Z,2.20
2023-01-11T12:57:30.939Z,2.47
2023-01-11T13:00:20.193Z,2.60
2023-01-11T13:03:18.802Z,3.20
2023-01-11T13:05:56.042Z,3.60
2023-01-11T13:08:33.250Z,2.20
2023-01-11T13:11:08.104Z,2.50
2023-01-11T13:13:48.256Z,2.43
2023-01-11T13:16:24.454Z,2.50
2023-01-11T13:19:00.683Z,1.80
2023-01-11T13:21:33.689Z,2.13
2023-01-11T13:24:08.423Z,2.43
2023-01-11T13:26:39.248Z,3.27
2023-01-11T13:29:16.285Z,2.33
2023-01-11T13:31:48.081Z,2.87
2023-01-11T13:34:23.286Z,2.50
2023-01-11T13:36:56.887Z,2.60
2023-01-11T13:39:33.447Z,3.20
2023-01-11T13:42:06.735Z,3.57
2023-01-11T13:44:38.391Z,2.50
2023-01-11T13:47:12.723Z,2.43
2023-01-11T13:49:50.240Z,3.13
2023-01-11T13:52:20.933Z,3.87
2023-01-11T13:54:59.076Z,4.10
2023-01-11T13:57:35.338Z,11.93
2023-01-11T14:00:11.518Z,3.93
2023-01-11T14:02:47.721Z,3.97
2023-01-11T14:05:18.881Z,8.37
2023-01-11T14:08:00.989Z,4.77
2023-01-11T14:10:47.999Z,3.77
2023-01-11T14:14:07.282Z,5.33
2023-01-11T14:16:49.517Z,16.00
2023-01-11T14:19:26.398Z,23.40
2023-01-11T14:22:06.870Z,18.70
2023-01-11T14:25:01.767Z,7.57
2023-01-11T14:27:43.579Z,4.13
2023-01-11T14:30:50.835Z,4.50
2023-01-11T14:33:53.911Z,4.37
2023-01-11T14:36:55.489Z,4.17
2023-01-11T14:39:57.261Z,4.27
2023-01-11T14:42:45.982Z,4.80
2023-01-11T14:45:23.322Z,5.17
2023-01-11T14:48:18.240Z,6.00
2023-01-11T14:51:14.539Z,5.60
2023-01-11T14:53:47.405Z,6.83
2023-01-11T14:56:36.523Z,5.83
2023-01-11T14:59:06.469Z,14.70
2023-01-11T15:02:14.000Z,6.63
2023-01-11T15:05:20.878Z,6.77
2023-01-11T15:07:52.083Z,7.53
2023-01-11T15:10:41.929Z,6.43
2023-01-11T15:13:16.081Z,6.73
2023-01-11T15:16:01.957Z,7.80
2023-01-11T15:18:31.221Z,7.47
2023-01-11T15:21:04.893Z,8.93
2023-01-11T15:23:35.697Z,9.63
2023-01-11T15:26:08.004Z,9.13
2023-01-11T15:28:45.634Z,10.17
2023-01-11T15:31:35.268Z,11.33
2023-01-11T15:34:25.044Z,13.03
2023-01-11T15:37:29.843Z,12.57
2023-01-11T15:40:00.343Z,12.47
2023-01-11T15:43:09.288Z,10.90
2023-01-11T15:46:33.401Z,12.27
2023-01-11T15:49:45.346Z,13.93
2023-01-11T15:52:56.246Z,9.73
2023-01-11T15:55:55.162Z,11.73
2023-01-11T15:59:07.374Z,10.27
2023-01-11T16:01:52.553Z,9.33
2023-01-11T16:04:29.544Z,9.67
2023-01-11T16:07:03.180Z,8.87
2023-01-11T16:09:54.458Z,8.50
2023-01-11T16:12:41.621Z,9.63
2023-01-11T16:15:27.359Z,7.03
2023-01-11T16:17:59.021Z,7.80
2023-01-11T16:20:28.921Z,7.53
2023-01-11T16:23:00.833Z,6.73
2023-01-11T16:25:32.184Z,6.27
2023-01-11T16:28:01.875Z,5.47
2023-01-11T16:30:32.041Z,5.13
2023-01-11T16:33:17.384Z,5.93
2023-01-11T16:35:45.682Z,5.63
2023-01-11T16:38:18.187Z,5.03
2023-01-11T16:40:50.912Z,6.20
2023-01-11T16:43:22.143Z,5.97
2023-01-11T16:45:54.360Z,5.87
2023-01-11T16:48:24.153Z,7.00
2023-01-11T16:51:01.600Z,5.40
2023-01-11T16:53:31.600Z,5.33
2023-01-11T16:56:05.492Z,5.50
2023-01-11T16:58:35.469Z,6.17
2023-01-11T17:01:07.155Z,7.33
2023-01-11T17:03:38.445Z,9.33
2023-01-11T17:06:19.469Z,8.33
2023-01-11T17:08:50.075Z,7.37
2023-01-11T17:11:29.599Z,9.83
2023-01-11T17:14:45.329Z,10.10
2023-01-11T17:17:15.491Z,9.67
2023-01-11T17:19:46.635Z,7.43
2023-01-11T17:22:22.376Z,9.67
2023-01-11T17:24:54.978Z,10.50
2023-01-11T17:27:27.908Z,9.90
2023-01-11T17:29:58.240Z,8.57
2023-01-11T17:32:35.588Z,9.50
2023-01-11T17:35:30.462Z,10.37
2023-01-11T17:38:00.963Z,10.10
2023-01-11T17:40:31.557Z,10.80
2023-01-11T17:43:22.623Z,10.00
2023-01-11T17:45:54.065Z,8.93
2023-01-11T17:48:23.899Z,9.07
2023-01-11T17:50:54.648Z,11.23
2023-01-11T17:53:26.625Z,10.63
2023-01-11T17:55:56.955Z,9.37
2023-01-11T17:58:27.359Z,10.80
2023-01-11T18:01:20.178Z,11.07
2023-01-11T18:03:51.696Z,10.57
2023-01-11T18:06:28.626Z,10.17
2023-01-11T18:08:58.318Z,9.33
2023-01-11T18:11:28.827Z,11.20
2023-01-11T18:14:00.465Z,8.73
2023-01-11T18:16:29.155Z,11.33
2023-01-11T18:18:59.100Z,10.80
2023-01-11T18:21:47.756Z,10.70
2023-01-11T18:24:45.131Z,9.73
2023-01-11T18:27:27.887Z,10.23
2023-01-11T18:29:57.488Z,9.50
2023-01-11T18:32:26.009Z,9.93
2023-01-11T18:35:04.067Z,8.93
2023-01-11T18:37:32.266Z,8.70
2023-01-11T18:40:01.400Z,7.23
2023-01-11T18:43:19.753Z,8.37
2023-01-11T18:45:48.092Z,7.13
2023-01-11T18:48:16.947Z,7.00
2023-01-11T18:50:48.114Z,8.70
2023-01-11T18:53:17.609Z,7.63
2023-01-11T18:55:47.296Z,6.50
2023-01-11T18:58:15.796Z,8.03
2023-01-11T19:00:43.942Z,7.83
2023-01-11T19:05:48.379Z,9.57
2023-01-11T19:08:16.842Z,7.73
2023-01-11T19:10:45.122Z,9.90
2023-01-11T19:13:13.347Z,6.90
2023-01-11T19:15:41.629Z,8.77
2023-01-11T19:18:09.927Z,10.90
2023-01-11T19:20:39.850Z,8.83
2023-01-11T19:23:09.515Z,9.23
2023-01-11T19:25:37.733Z,9.53
2023-01-11T19:28:06.536Z,9.50
2023-01-11T19:30:34.699Z,8.70
2023-01-11T19:33:03.057Z,9.30
2023-01-11T19:35:31.260Z,9.50
2023-01-11T19:37:59.571Z,9.67
2023-01-11T19:40:29.175Z,8.23
2023-01-11T19:42:57.399Z,8.43
2023-01-11T19:45:25.864Z,8.70
2023-01-11T19:47:54.123Z,8.57
2023-01-11T19:50:22.400Z,9.30
2023-01-11T19:52:50.626Z,9.17
2023-01-11T19:55:19.037Z,9.43
2023-01-11T19:57:48.695Z,9.93
2023-01-11T20:00:18.935Z,6.83
2023-01-11T20:02:47.251Z,5.93
2023-01-11T20:05:15.694Z,7.40
2023-01-11T20:07:43.877Z,10.53
2023-01-11T20:10:12.764Z,10.97
2023-01-11T20:12:40.947Z,12.83
2023-01-11T20:15:12.002Z,14.13
2023-01-11T20:17:40.204Z,19.30
2023-01-11T20:20:09.532Z,9.70
2023-01-11T20:22:37.907Z,6.37
2023-01-11T20:25:07.147Z,6.67
2023-01-11T20:27:35.347Z,5.53
2023-01-11T20:30:03.650Z,7.53
2023-01-11T20:32:41.399Z,5.70
2023-01-11T20:35:11.154Z,6.03
2023-01-11T20:37:39.579Z,5.37
2023-01-11T20:40:08.692Z,6.03
2023-01-11T20:42:36.966Z,6.93
2023-01-11T20:45:55.740Z,6.63
2023-01-11T20:48:25.418Z,6.50
2023-01-11T20:50:53.623Z,6.00
2023-01-11T20:53:21.865Z,8.63
2023-01-11T20:55:50.139Z,7.90
2023-01-11T20:58:18.381Z,7.73
2023-01-11T21:00:46.637Z,8.83
2023-01-11T21:03:14.903Z,8.77
2023-01-11T21:05:44.473Z,7.60
2023-01-11T21:08:12.747Z,6.83
2023-01-11T21:10:41.014Z,8.13
2023-01-11T21:13:12.180Z,8.13
2023-01-11T21:15:40.455Z,7.73
2023-01-11T21:18:08.762Z,6.80
2023-01-11T21:20:37.001Z,8.50
2023-01-11T21:23:06.636Z,8.13
2023-01-11T21:25:41.081Z,8.43
2023-01-11T21:28:09.598Z,8.47
2023-01-11T21:30:37.838Z,7.90
2023-01-11T21:33:06.114Z,7.87
2023-01-11T21:35:35.472Z,7.63
2023-01-11T21:38:03.710Z,9.33
2023-01-11T21:40:35.024Z,6.97
2023-01-11T21:43:03.239Z,7.83
2023-01-11T21:45:31.714Z,8.50
2023-01-11T21:47:59.961Z,8.70
2023-01-11T21:50:28.204Z,8.10
2023-01-11T21:52:56.455Z,8.37
2023-01-11T21:55:24.680Z,7.13
2023-01-11T21:57:54.630Z,7.63
2023-01-11T22:00:23.175Z,6.67
2023-01-11T22:02:51.595Z,6.30
2023-01-11T22:05:19.878Z,7.23
2023-01-11T22:07:48.097Z,6.97
2023-01-11T22:10:17.263Z,7.53
2023-01-11T22:12:45.553Z,6.80
2023-01-11T22:15:15.123Z,7.00
2023-01-11T22:17:43.330Z,6.80
2023-01-11T22:20:15.141Z,7.47
2023-01-11T22:22:43.436Z,8.73
2023-01-11T22:25:11.776Z,6.93
2023-01-11T22:27:39.933Z,8.03
2023-01-11T22:30:09.611Z,6.83
2023-01-11T22:32:40.230Z,6.97
2023-01-11T22:35:09.836Z,7.13
2023-01-11T22:37:38.035Z,7.07
2023-01-11T22:40:07.146Z,6.80
2023-01-11T22:42:35.380Z,7.27
2023-01-11T22:45:05.020Z,8.47
2023-01-11T22:47:33.287Z,8.73
2023-01-11T22:50:02.931Z,6.70
2023-01-11T22:52:32.187Z,8.80
2023-01-11T22:55:25.054Z,8.97
2023-01-11T22:57:53.443Z,7.80
2023-01-11T23:00:22.316Z,8.67
2023-01-11T23:02:50.590Z,9.37
2023-01-11T23:05:47.335Z,7.10
2023-01-11T23:08:16.193Z,8.07
2023-01-11T23:10:44.931Z,7.63
2023-01-11T23:13:30.756Z,6.93
2023-01-11T23:15:58.962Z,6.77
2023-01-11T23:18:27.252Z,7.77
2023-01-11T23:20:56.830Z,7.90
2023-01-11T23:23:28.504Z,6.43
2023-01-11T23:25:56.764Z,7.27
2023-01-11T23:28:25.105Z,7.33
2023-01-11T23:30:53.387Z,7.63
2023-01-11T23:33:21.572Z,6.80
2023-01-11T23:35:57.777Z,7.33
2023-01-11T23:38:52.130Z,6.50
2023-01-11T23:41:39.489Z,8.30
2023-01-11T23:44:11.331Z,7.27
2023-01-11T23:46:57.853Z,7.60
2023-01-11T23:49:26.692Z,6.70
2023-01-11T23:51:56.811Z,8.10
2023-01-11T23:54:31.125Z,7.83
2023-01-11T23:57:00.422Z,7.03
2023-01-11T23:59:28.956Z,7.30
